createdAt,value
2023-01-18T00:00:36.587Z,44.20
2023-01-18T00:03:19.170Z,36.80
2023-01-18T00:05:45.472Z,39.80
2023-01-18T00:08:15.936Z,39.80
2023-01-18T00:10:43.203Z,34.80
2023-01-18T00:13:10.430Z,36.20
2023-01-18T00:15:38.581Z,36.40
2023-01-18T00:18:05.463Z,38.70
2023-01-18T00:20:32.179Z,35.10
2023-01-18T00:23:01.152Z,30.70
2023-01-18T00:25:28.488Z,40.00
2023-01-18T00:27:55.535Z,38.10
2023-01-18T00:30:26.379Z,42.90
2023-01-18T00:32:55.757Z,39.20
2023-01-18T00:35:22.897Z,41.50
2023-01-18T00:37:50.923Z,44.60
2023-01-18T00:40:18.628Z,40.80
2023-01-18T00:43:03.760Z,40.40
2023-01-18T00:45:30.070Z,32.00
2023-01-18T00:47:57.588Z,34.50
2023-01-18T00:50:24.032Z,36.80
2023-01-18T00:52:50.631Z,24.00
2023-01-18T00:55:17.130Z,33.10
2023-01-18T00:57:43.814Z,29.70
2023-01-18T01:00:14.469Z,33.90
2023-01-18T01:02:41.167Z,24.50
2023-01-18T01:05:38.544Z,35.70
2023-01-18T01:08:06.352Z,29.10
2023-01-18T01:10:33.982Z,30.10
2023-01-18T01:13:19.609Z,28.60
2023-01-18T01:16:04.706Z,31.60
2023-01-18T01:18:49.698Z,29.40
2023-01-18T01:21:34.272Z,33.00
2023-01-18T01:24:19.444Z,43.60
2023-01-18T01:26:45.695Z,40.20
2023-01-18T01:29:12.060Z,36.80
2023-01-18T01:31:38.776Z,40.10
2023-01-18T01:34:05.129Z,35.80
2023-01-18T01:36:31.471Z,36.50
2023-01-18T01:38:57.937Z,36.90
2023-01-18T01:41:27.366Z,35.00
2023-01-18T01:43:55.026Z,34.50
2023-01-18T01:46:39.566Z,37.50
2023-01-18T01:49:19.508Z,34.00
2023-01-18T01:51:50.918Z,27.70
2023-01-18T01:54:39.894Z,30.70
2023-01-18T01:57:18.490Z,22.60
2023-01-18T01:59:53.150Z,25.40
2023-01-18T02:02:19.629Z,27.20
2023-01-18T02:04:52.808Z,26.00
2023-01-18T02:07:20.580Z,18.00
2023-01-18T02:09:47.436Z,23.80
2023-01-18T02:12:14.092Z,23.30
2023-01-18T02:14:41.180Z,23.60
2023-01-18T02:17:31.068Z,28.10
2023-01-18T02:20:30.953Z,18.30
2023-01-18T02:23:18.610Z,25.20
2023-01-18T02:26:22.100Z,24.00
2023-01-18T02:29:18.963Z,15.30
2023-01-18T02:31:45.235Z,19.60
2023-01-18T02:34:33.216Z,16.00
2023-01-18T02:37:16.135Z,23.90
2023-01-18T02:39:57.521Z,25.60
2023-01-18T02:42:45.813Z,27.70
2023-01-18T02:45:39.919Z,26.50
2023-01-18T02:48:07.856Z,22.80
2023-01-18T02:50:34.169Z,24.50
2023-01-18T02:53:00.511Z,24.90
2023-01-18T02:55:29.536Z,25.70
2023-01-18T02:58:03.094Z,21.50
2023-01-18T03:00:32.407Z,16.80
2023-01-18T03:03:00.497Z,21.80
2023-01-18T03:05:28.898Z,23.00
2023-01-18T03:08:08.741Z,21.30
2023-01-18T03:10:44.331Z,20.70
2023-01-18T03:13:17.501Z,22.50
2023-01-18T03:15:59.344Z,17.50
2023-01-18T03:18:36.888Z,19.00
2023-01-18T03:21:07.357Z,21.40
2023-01-18T03:23:39.105Z,19.60
2023-01-18T03:26:13.890Z,21.20
2023-01-18T03:29:02.318Z,20.40
2023-01-18T03:34:42.140Z,21.00
2023-01-18T03:39:44.683Z,16.40
2023-01-18T03:42:44.378Z,18.20
2023-01-18T03:45:17.087Z,19.30
2023-01-18T03:47:43.457Z,17.60
2023-01-18T03:50:10.107Z,20.10
2023-01-18T03:52:42.062Z,17.00
2023-01-18T03:55:16.106Z,16.60
2023-01-18T03:57:49.455Z,16.30
2023-01-18T04:00:16.697Z,17.20
2023-01-18T04:02:44.591Z,17.60
2023-01-18T04:05:11.734Z,16.90
2023-01-18T04:07:38.157Z,19.60
2023-01-18T04:10:05.033Z,21.50
2023-01-18T04:12:33.620Z,14.20
2023-01-18T04:15:00.694Z,14.20
2023-01-18T04:17:27.357Z,17.70
2023-01-18T04:19:53.623Z,17.50
2023-01-18T04:22:20.126Z,16.20
2023-01-18T04:24:46.434Z,15.60
2023-01-18T04:27:12.753Z,17.70
2023-01-18T04:29:39.028Z,12.70
2023-01-18T04:32:05.362Z,19.70
2023-01-18T04:34:32.660Z,14.90
2023-01-18T04:36:59.601Z,17.00
2023-01-18T04:39:25.933Z,18.20
2023-01-18T04:41:52.303Z,24.80
2023-01-18T04:44:18.576Z,15.10
2023-01-18T04:46:44.932Z,18.60
2023-01-18T04:49:14.716Z,17.30
2023-01-18T04:54:09.097Z,13.50
2023-01-18T04:56:35.428Z,19.10
2023-01-18T04:59:01.923Z,19.40
2023-01-18T05:01:28.925Z,20.60
2023-01-18T05:03:55.720Z,19.10
2023-01-18T05:06:23.801Z,19.90
2023-01-18T05:08:50.575Z,20.40
2023-01-18T05:11:19.788Z,20.60
2023-01-18T05:13:46.667Z,21.00
2023-01-18T05:16:16.580Z,15.80
2023-01-18T05:18:43.875Z,22.20
2023-01-18T05:21:11.342Z,21.30
2023-01-18T05:23:39.572Z,20.50
2023-01-18T05:26:13.930Z,18.30
2023-01-18T05:28:41.869Z,16.10
2023-01-18T05:31:09.048Z,9.50
2023-01-18T05:33:35.542Z,18.30
2023-01-18T05:36:02.077Z,16.80
2023-01-18T05:38:28.472Z,17.80
2023-01-18T05:40:54.849Z,13.20
2023-01-18T05:43:23.179Z,16.40
2023-01-18T05:45:49.523Z,17.50
2023-01-18T05:48:16.472Z,12.20
2023-01-18T05:50:45.163Z,11.90
2023-01-18T05:53:17.565Z,13.40
2023-01-18T05:55:52.388Z,13.20
2023-01-18T05:58:18.646Z,11.90
2023-01-18T06:00:45.049Z,13.80
2023-01-18T06:03:11.379Z,10.10
2023-01-18T06:05:37.652Z,15.50
2023-01-18T06:08:04.284Z,14.80
2023-01-18T06:10:30.638Z,8.90
2023-01-18T06:12:57.327Z,11.10
2023-01-18T06:15:23.861Z,11.70
2023-01-18T06:17:50.154Z,10.30
2023-01-18T06:20:16.582Z,13.70
2023-01-18T06:22:44.828Z,7.80
2023-01-18T06:25:11.134Z,11.20
2023-01-18T06:27:38.641Z,8.40
2023-01-18T06:30:06.758Z,13.30
2023-01-18T06:32:33.385Z,12.30
2023-01-18T06:34:59.686Z,11.30
2023-01-18T06:37:26.021Z,11.00
2023-01-18T06:39:52.287Z,9.50
2023-01-18T06:42:18.873Z,12.40
2023-01-18T06:44:45.218Z,8.30
2023-01-18T06:47:11.554Z,11.90
2023-01-18T06:49:39.409Z,13.10
2023-01-18T06:52:05.754Z,7.70
2023-01-18T06:54:32.138Z,13.80
2023-01-18T06:56:58.471Z,10.10
2023-01-18T06:59:24.732Z,10.90
2023-01-18T07:01:53.832Z,10.80
2023-01-18T07:04:20.263Z,8.60
2023-01-18T07:06:46.649Z,19.00
2023-01-18T07:09:13.857Z,16.20
2023-01-18T07:11:42.597Z,15.20
2023-01-18T07:14:12.709Z,14.80
2023-01-18T07:16:39.053Z,14.70
2023-01-18T07:19:05.515Z,20.70
2023-01-18T07:21:32.049Z,13.50
2023-01-18T07:23:59.130Z,15.70
2023-01-18T07:26:25.808Z,12.90
2023-01-18T07:28:54.033Z,12.20
2023-01-18T07:31:20.672Z,11.10
2023-01-18T07:33:46.976Z,11.30
2023-01-18T07:36:13.323Z,10.10
2023-01-18T07:38:39.701Z,77.30
2023-01-18T07:41:09.304Z,56.80
2023-01-18T07:43:39.373Z,49.40
2023-01-18T07:46:08.684Z,50.60
2023-01-18T07:48:38.079Z,36.50
2023-01-18T07:51:07.904Z,100.70
2023-01-18T07:53:35.731Z,37.00
2023-01-18T07:56:05.265Z,32.10
2023-01-18T07:58:33.071Z,52.20
2023-01-18T08:01:10.012Z,23.60
2023-01-18T08:03:37.469Z,24.30
2023-01-18T08:06:06.529Z,14.40
2023-01-18T08:08:34.989Z,23.00
2023-01-18T08:11:03.389Z,12.00
2023-01-18T08:13:30.337Z,15.40
2023-01-18T08:16:00.144Z,27.90
2023-01-18T08:18:26.752Z,18.90
2023-01-18T08:20:55.165Z,14.50
2023-01-18T08:23:23.538Z,16.30
2023-01-18T08:25:50.401Z,24.00
2023-01-18T08:28:17.109Z,17.90
2023-01-18T08:30:46.720Z,12.20
2023-01-18T08:33:13.415Z,24.80
2023-01-18T08:35:44.968Z,49.10
2023-01-18T08:38:13.461Z,22.30
2023-01-18T08:40:39.946Z,9.70
2023-01-18T08:43:06.728Z,10.50
2023-01-18T08:45:36.397Z,13.60
2023-01-18T08:48:09.084Z,44.70
2023-01-18T08:50:36.308Z,117.80
2023-01-18T08:53:03.631Z,91.10
2023-01-18T08:55:30.973Z,76.40
2023-01-18T08:57:57.649Z,25.50
2023-01-18T09:00:27.711Z,19.80
2023-01-18T09:02:54.384Z,30.20
2023-01-18T09:05:21.529Z,23.70
2023-01-18T09:07:48.214Z,53.40
2023-01-18T09:10:14.910Z,36.30
2023-01-18T09:12:41.325Z,35.00
2023-01-18T09:15:08.431Z,13.60
2023-01-18T09:17:34.806Z,10.30
2023-01-18T09:20:01.219Z,21.30
2023-01-18T09:22:27.725Z,13.70
2023-01-18T09:24:54.016Z,8.00
2023-01-18T09:27:20.268Z,8.70
2023-01-18T09:29:51.476Z,6.80
2023-01-18T09:32:20.665Z,7.90
2023-01-18T09:34:50.093Z,5.20
2023-01-18T09:37:18.383Z,5.30
2023-01-18T09:39:51.811Z,5.90
2023-01-18T09:42:24.635Z,4.40
2023-01-18T09:44:54.636Z,4.10
2023-01-18T09:47:42.766Z,4.70
2023-01-18T09:50:12.569Z,4.10
2023-01-18T09:55:47.166Z,33.00
2023-01-18T09:58:38.653Z,84.30
2023-01-18T10:01:11.752Z,42.20
2023-01-18T10:03:59.634Z,49.30
2023-01-18T10:06:42.083Z,23.30
2023-01-18T10:09:20.223Z,20.10
2023-01-18T10:12:02.215Z,25.50
2023-01-18T10:14:39.426Z,18.00
2023-01-18T10:17:17.270Z,11.90
2023-01-18T10:19:44.074Z,17.50
2023-01-18T10:22:13.241Z,12.10
2023-01-18T10:24:39.504Z,12.20
2023-01-18T10:27:31.140Z,23.80
2023-01-18T10:30:14.246Z,17.90
2023-01-18T10:32:51.275Z,19.70
2023-01-18T10:35:27.140Z,18.70
2023-01-18T10:37:58.581Z,19.60
2023-01-18T10:40:25.321Z,31.00
2023-01-18T10:42:56.395Z,10.40
2023-01-18T10:45:29.205Z,6.90
2023-01-18T10:47:57.699Z,20.90
2023-01-18T10:50:36.786Z,24.30
2023-01-18T10:53:26.731Z,21.30
2023-01-18T10:56:01.427Z,13.90
2023-01-18T10:58:32.284Z,19.60
2023-01-18T11:01:01.241Z,22.70
2023-01-18T11:03:28.353Z,20.90
2023-01-18T11:06:04.287Z,22.70
2023-01-18T11:08:33.579Z,23.30
2023-01-18T11:10:59.801Z,21.50
2023-01-18T11:13:38.190Z,16.10
2023-01-18T11:16:16.852Z,24.70
2023-01-18T11:19:00.057Z,13.00
2023-01-18T11:21:32.496Z,12.20
2023-01-18T11:24:07.019Z,8.10
2023-01-18T11:26:33.917Z,16.30
2023-01-18T11:29:04.595Z,28.00
2023-01-18T11:31:52.244Z,32.20
2023-01-18T11:34:49.372Z,28.00
2023-01-18T11:37:33.660Z,25.70
2023-01-18T11:40:20.479Z,40.60
2023-01-18T11:42:50.138Z,50.20
2023-01-18T11:45:45.378Z,15.80
2023-01-18T11:48:29.448Z,24.70
2023-01-18T11:51:01.939Z,51.90
2023-01-18T11:53:40.972Z,28.80
2023-01-18T11:56:18.361Z,48.10
2023-01-18T11:58:44.811Z,18.60
2023-01-18T12:01:42.837Z,36.40
2023-01-18T12:04:32.494Z,41.30
2023-01-18T12:07:14.511Z,18.30
2023-01-18T12:09:49.958Z,8.80
2023-01-18T12:12:42.523Z,6.80
2023-01-18T12:15:38.088Z,112.50
2023-01-18T12:18:21.346Z,27.30
2023-01-18T12:21:09.851Z,16.50
2023-01-18T12:24:01.043Z,4.80
2023-01-18T12:26:53.087Z,8.20
2023-01-18T12:30:01.159Z,11.80
2023-01-18T12:32:46.437Z,14.30
2023-01-18T12:35:23.713Z,3.10
2023-01-18T12:38:08.348Z,3.60
2023-01-18T12:40:55.983Z,3.20
2023-01-18T12:43:49.157Z,2.50
2023-01-18T12:47:02.256Z,2.30
2023-01-18T12:52:17.812Z,2.50
2023-01-18T12:54:48.476Z,3.50
2023-01-18T12:57:16.429Z,5.20
2023-01-18T12:59:58.949Z,4.80
2023-01-18T13:02:39.152Z,4.30
2023-01-18T13:05:21.026Z,6.30
2023-01-18T13:08:05.864Z,4.40
2023-01-18T13:10:34.551Z,5.00
2023-01-18T13:13:03.229Z,5.70
2023-01-18T13:15:50.769Z,6.50
2023-01-18T13:18:24.605Z,6.30
2023-01-18T13:21:19.579Z,6.00
2023-01-18T13:24:05.466Z,4.50
2023-01-18T13:26:33.819Z,5.80
2023-01-18T13:29:31.245Z,4.70
2023-01-18T13:31:57.663Z,5.70
2023-01-18T13:34:42.213Z,3.30
2023-01-18T13:37:51.483Z,5.00
2023-01-18T13:40:29.629Z,5.00
2023-01-18T13:42:56.024Z,6.00
2023-01-18T13:45:24.918Z,6.70
2023-01-18T13:48:06.901Z,6.50
2023-01-18T13:50:39.158Z,4.60
2023-01-18T13:53:14.505Z,5.60
2023-01-18T13:55:45.962Z,6.40
2023-01-18T13:58:19.740Z,6.50
2023-01-18T14:00:47.837Z,5.80
2023-01-18T14:03:20.166Z,6.40
2023-01-18T14:05:48.172Z,5.80
2023-01-18T14:08:28.434Z,6.00
2023-01-18T14:11:03.717Z,5.00
2023-01-18T14:13:45.275Z,6.10
2023-01-18T14:16:33.361Z,6.10
2023-01-18T14:19:11.365Z,5.60
2023-01-18T14:22:07.475Z,5.40
2023-01-18T14:24:42.609Z,6.00
2023-01-18T14:27:15.959Z,8.50
2023-01-18T14:29:59.335Z,6.20
2023-01-18T14:32:34.255Z,6.90
2023-01-18T14:35:03.750Z,7.10
2023-01-18T14:37:32.821Z,7.90
2023-01-18T14:40:17.691Z,8.00
2023-01-18T14:42:58.124Z,6.10
2023-01-18T14:45:28.380Z,6.00
2023-01-18T14:47:59.462Z,6.30
2023-01-18T14:50:31.416Z,5.90
2023-01-18T14:52:58.658Z,5.40
2023-01-18T14:55:33.591Z,6.90
2023-01-18T14:58:03.082Z,8.40
2023-01-18T15:00:29.515Z,7.50
2023-01-18T15:02:56.011Z,7.70
2023-01-18T15:05:27.997Z,7.90
2023-01-18T15:07:55.400Z,8.80
2023-01-18T15:10:23.491Z,6.00
2023-01-18T15:12:54.446Z,6.60
2023-01-18T15:15:36.625Z,7.00
2023-01-18T15:18:10.173Z,8.00
2023-01-18T15:20:57.555Z,6.50
2023-01-18T15:23:24.757Z,8.20
2023-01-18T15:25:52.450Z,7.80
2023-01-18T15:28:24.084Z,8.50
2023-01-18T15:30:55.436Z,6.80
2023-01-18T15:33:24.325Z,10.30
2023-01-18T15:35:56.355Z,8.10
2023-01-18T15:38:22.856Z,8.80
2023-01-18T15:41:03.523Z,8.20
2023-01-18T15:43:33.971Z,9.40
2023-01-18T15:46:00.814Z,7.90
2023-01-18T15:48:32.855Z,10.20
2023-01-18T15:51:07.026Z,9.50
2023-01-18T15:53:37.212Z,10.30
2023-01-18T15:56:07.199Z,11.00
2023-01-18T15:58:44.035Z,8.60
2023-01-18T16:01:13.196Z,7.50
2023-01-18T16:03:45.432Z,7.50
2023-01-18T16:06:19.369Z,7.80
2023-01-18T16:09:11.530Z,8.70
2023-01-18T16:11:38.204Z,8.20
2023-01-18T16:14:12.632Z,10.60
2023-01-18T16:16:40.926Z,10.30
2023-01-18T16:19:26.209Z,9.70
2023-01-18T16:21:58.134Z,12.80
2023-01-18T16:24:30.587Z,9.90
2023-01-18T16:27:11.108Z,12.50
2023-01-18T16:29:49.823Z,11.30
2023-01-18T16:32:22.120Z,10.90
2023-01-18T16:34:49.198Z,11.20
2023-01-18T16:37:17.471Z,8.20
2023-01-18T16:39:44.287Z,9.90
2023-01-18T16:42:11.933Z,9.20
2023-01-18T16:44:41.973Z,13.70
2023-01-18T16:47:13.091Z,13.20
2023-01-18T16:49:40.416Z,11.70
2023-01-18T16:52:12.001Z,12.30
2023-01-18T16:54:43.059Z,12.60
2023-01-18T16:57:28.913Z,14.70
2023-01-18T16:59:55.445Z,11.90
2023-01-18T17:02:21.778Z,10.50
2023-01-18T17:04:48.229Z,15.60
2023-01-18T17:07:15.185Z,15.10
2023-01-18T17:09:48.351Z,17.60
2023-01-18T17:12:15.581Z,16.20
2023-01-18T17:14:41.971Z,14.60
2023-01-18T17:17:09.616Z,16.70
2023-01-18T17:19:37.021Z,14.00
2023-01-18T17:22:03.714Z,17.10
2023-01-18T17:24:30.024Z,15.90
2023-01-18T17:26:56.363Z,16.50
2023-01-18T17:29:22.664Z,16.80
2023-01-18T17:31:52.536Z,19.40
2023-01-18T17:34:27.854Z,20.80
2023-01-18T17:36:59.029Z,19.00
2023-01-18T17:39:37.026Z,22.30
2023-01-18T17:44:50.115Z,18.00
2023-01-18T17:47:16.431Z,20.70
2023-01-18T17:49:42.743Z,20.40
2023-01-18T17:52:09.031Z,24.80
2023-01-18T17:54:35.418Z,15.80
2023-01-18T17:57:01.945Z,21.70
2023-01-18T17:59:28.233Z,15.90
2023-01-18T18:01:54.580Z,19.40
2023-01-18T18:04:20.867Z,19.20
2023-01-18T18:06:54.307Z,18.60
2023-01-18T18:09:20.926Z,20.80
2023-01-18T18:11:47.305Z,17.60
2023-01-18T18:14:13.709Z,19.10
2023-01-18T18:16:43.596Z,18.90
2023-01-18T18:19:13.775Z,19.60
2023-01-18T18:24:11.170Z,15.90
2023-01-18T18:26:37.483Z,18.00
2023-01-18T18:29:03.849Z,18.90
2023-01-18T18:31:30.204Z,22.60
2023-01-18T18:33:56.566Z,19.70
2023-01-18T18:36:26.321Z,18.00
2023-01-18T18:38:52.663Z,19.30
2023-01-18T18:41:19.213Z,23.60
2023-01-18T18:43:45.525Z,23.80
2023-01-18T18:46:13.194Z,24.90
2023-01-18T18:48:39.538Z,23.20
2023-01-18T18:51:05.890Z,22.60
2023-01-18T18:53:38.550Z,22.70
2023-01-18T18:56:08.956Z,18.20
2023-01-18T18:58:36.024Z,21.80
2023-01-18T19:01:04.310Z,19.60
2023-01-18T19:03:31.062Z,24.90
2023-01-18T19:05:57.667Z,20.10
2023-01-18T19:08:23.947Z,27.30
2023-01-18T19:10:51.044Z,24.40
2023-01-18T19:13:18.544Z,28.10
2023-01-18T19:15:46.152Z,28.30
2023-01-18T19:18:13.099Z,28.00
2023-01-18T19:20:40.012Z,29.70
2023-01-18T19:23:06.748Z,26.90
2023-01-18T19:25:33.325Z,31.00
2023-01-18T19:27:59.595Z,31.40
2023-01-18T19:30:26.381Z,28.10
2023-01-18T19:32:52.960Z,31.10
2023-01-18T19:35:21.029Z,25.40
2023-01-18T19:37:48.355Z,26.00
2023-01-18T19:40:16.039Z,29.20
2023-01-18T19:42:43.734Z,29.20
2023-01-18T19:45:13.892Z,19.40
2023-01-18T19:47:47.613Z,22.30
2023-01-18T19:50:14.834Z,25.40
2023-01-18T19:52:41.182Z,29.60
2023-01-18T19:55:08.268Z,31.00
2023-01-18T19:57:34.642Z,18.60
2023-01-18T20:00:03.289Z,25.10
2023-01-18T20:02:39.756Z,26.50
2023-01-18T20:05:06.543Z,24.50
2023-01-18T20:07:33.038Z,28.00
2023-01-18T20:09:59.386Z,22.70
2023-01-18T20:12:28.571Z,25.10
2023-01-18T20:14:54.861Z,25.20
2023-01-18T20:17:21.313Z,23.60
2023-01-18T20:19:50.294Z,23.70
2023-01-18T20:22:16.696Z,25.30
2023-01-18T20:24:43.557Z,19.30
2023-01-18T20:27:16.080Z,28.60
2023-01-18T20:29:43.518Z,23.60
2023-01-18T20:32:16.204Z,23.70
2023-01-18T20:34:45.723Z,25.30
2023-01-18T20:37:12.760Z,20.20
2023-01-18T20:39:39.300Z,23.80
2023-01-18T20:42:05.753Z,27.70
2023-01-18T20:44:32.260Z,23.60
2023-01-18T20:46:58.679Z,22.80
2023-01-18T20:49:37.233Z,19.50
2023-01-18T20:52:06.026Z,22.10
2023-01-18T20:54:34.153Z,22.60
2023-01-18T20:57:01.119Z,22.50
2023-01-18T20:59:27.502Z,19.60
2023-01-18T21:01:54.036Z,22.80
2023-01-18T21:04:20.472Z,18.40
2023-01-18T21:06:49.060Z,19.70
2023-01-18T21:09:15.981Z,20.60
2023-01-18T21:11:42.644Z,21.00
2023-01-18T21:14:09.151Z,18.30
2023-01-18T21:16:35.644Z,21.40
2023-01-18T21:19:02.008Z,20.10
2023-01-18T21:21:30.676Z,23.20
2023-01-18T21:23:57.714Z,20.40
2023-01-18T21:26:24.066Z,23.30
2023-01-18T21:28:50.355Z,17.70
2023-01-18T21:31:17.013Z,22.00
2023-01-18T21:33:43.459Z,22.60
2023-01-18T21:36:16.890Z,19.40
2023-01-18T21:38:43.272Z,20.70
2023-01-18T21:41:28.724Z,21.50
2023-01-18T21:44:13.610Z,20.20
2023-01-18T21:46:47.420Z,21.80
2023-01-18T21:49:47.224Z,24.60
2023-01-18T21:52:37.754Z,21.90
2023-01-18T21:55:04.348Z,17.60
2023-01-18T21:57:30.668Z,20.80
2023-01-18T21:59:57.008Z,22.40
2023-01-18T22:02:23.414Z,23.80
2023-01-18T22:04:59.423Z,18.90
2023-01-18T22:07:27.513Z,19.00
2023-01-18T22:10:03.897Z,23.10
2023-01-18T22:12:32.711Z,24.10
2023-01-18T22:15:01.158Z,20.50
2023-01-18T22:17:27.500Z,24.80
2023-01-18T22:19:54.034Z,21.10
2023-01-18T22:22:20.321Z,27.20
2023-01-18T22:24:46.701Z,25.50
2023-01-18T22:27:13.132Z,21.80
2023-01-18T22:29:39.412Z,18.20
2023-01-18T22:32:05.851Z,24.00
2023-01-18T22:34:32.245Z,23.50
2023-01-18T22:36:58.589Z,20.20
2023-01-18T22:39:24.876Z,23.60
2023-01-18T22:41:51.142Z,27.60
2023-01-18T22:44:17.588Z,23.00
2023-01-18T22:46:44.077Z,21.40
2023-01-18T22:49:10.682Z,26.20
2023-01-18T22:51:37.027Z,22.70
2023-01-18T22:54:03.428Z,21.60
2023-01-18T22:56:29.773Z,25.60
2023-01-18T22:58:56.259Z,25.80
2023-01-18T23:01:25.999Z,22.20
2023-01-18T23:03:55.179Z,26.10
2023-01-18T23:06:21.575Z,24.10
2023-01-18T23:08:48.570Z,24.90
2023-01-18T23:11:18.541Z,28.30
2023-01-18T23:14:08.049Z,24.90
2023-01-18T23:16:54.398Z,24.70
2023-01-18T23:19:23.357Z,21.70
2023-01-18T23:21:50.444Z,25.40
2023-01-18T23:24:17.520Z,24.60
2023-01-18T23:26:44.183Z,21.90
2023-01-18T23:29:10.477Z,26.50
2023-01-18T23:31:36.853Z,25.50
2023-01-18T23:34:03.239Z,23.80
2023-01-18T23:36:29.558Z,24.80
2023-01-18T23:39:14.835Z,19.20
2023-01-18T23:41:59.976Z,29.10
2023-01-18T23:44:45.037Z,29.60
2023-01-18T23:47:29.939Z,26.50
2023-01-18T23:50:15.141Z,28.40
2023-01-18T23:53:00.434Z,21.40
2023-01-18T23:55:26.690Z,24.90
2023-01-18T23:57:53.098Z,24.60
